Time;durP1;ratioP1;P1;durP2;ratioP2;P2;SDS_P1;SDS_P2;PMS_P1;PMS_P2;Temp;Humidity;BMP_temperature;BMP_pressure;BME280_temperature;BME280_humidity;BME280_pressure;Samples;Min_cycle;Max_cycle;Signal;HPM_P1;HPM_P2
2022/04/28 00:01:59;;;;;;;;;;;;;;;20.53;41.54;102153.78;5088030;27;3261;-62
2022/04/28 00:04:26;;;;;;;;;;;;;;;20.53;41.46;102159.53;5087007;27;3293;-62
2022/04/28 00:06:52;;;;;;;;;;;;;;;20.51;41.42;102158.03;5087908;27;3143;-62
2022/04/28 00:09:18;;;;;;;;;;;;;;;20.51;41.39;102152.28;5104548;27;3353;-62
2022/04/28 00:11:45;;;;;;;;;;;;;;;20.50;41.46;102156.53;5109471;27;3001;-62
2022/04/28 00:14:11;;;;;;;;;;;;;;;20.49;41.43;102149.25;5103712;27;3755;-62
2022/04/28 00:16:37;;;;;;;;;;;;;;;20.50;41.44;102159.41;5105407;27;3320;-62
2022/04/28 00:19:04;;;;;;;;;;;;;;;20.48;41.37;102153.53;5119215;27;3415;-62
2022/04/28 00:21:30;;;;;;;;;;;;;;;20.49;41.40;102160.75;5112539;27;3044;-62
2022/04/28 00:23:57;;;;;;;;;;;;;;;20.48;41.33;102147.75;5114804;27;3007;-62
2022/04/28 00:26:23;;;;;;;;;;;;;;;20.48;41.39;102153.53;5106351;27;2875;-61
2022/04/28 00:28:49;;;;;;;;;;;;;;;20.48;41.42;102153.53;5107309;27;3282;-62
2022/04/28 00:31:16;;;;;;;;;;;;;;;20.47;41.38;102157.75;5115486;27;2737;-62
2022/04/28 00:33:42;;;;;;;;;;;;;;;20.47;41.39;102163.50;5120262;27;2841;-61
2022/04/28 00:36:09;;;;;;;;;;;;;;;20.46;41.29;102162.00;5100638;27;2648;-61
2022/04/28 00:38:35;;;;;;;;;;;;;;;20.46;41.39;102167.03;5112260;27;2943;-62
2022/04/28 00:41:02;;;;;;;;;;;;;;;20.45;41.40;102172.00;5098629;27;2958;-62
2022/04/28 00:43:31;;;;;;;;;;;;;;;20.44;41.36;102169.75;5119061;27;2906;-61
2022/04/28 00:45:58;;;;;;;;;;;;;;;20.44;41.28;102164.00;5112777;27;3171;-61
2022/04/28 00:51:11;;;;;;;;;;;;;;;20.43;41.27;102165.34;5110297;27;2969;-62
2022/04/28 00:53:41;;;;;;;;;;;;;;;20.43;41.31;102168.22;5094637;27;3005;-61
2022/04/28 00:56:09;;;;;;;;;;;;;;;20.43;41.23;102162.47;5103055;27;2803;-62
2022/04/28 00:58:36;;;;;;;;;;;;;;;20.41;41.29;102171.75;5095978;27;3030;-61
2022/04/28 01:01:03;;;;;;;;;;;;;;;20.42;41.35;102178.25;5107830;27;3418;-61
2022/04/28 01:03:30;;;;;;;;;;;;;;;20.42;41.27;102172.50;5096748;28;3122;-61
2022/04/28 01:05:57;;;;;;;;;;;;;;;20.41;41.36;102174.63;5094780;27;2866;-61
2022/04/28 01:08:24;;;;;;;;;;;;;;;20.41;41.27;102183.25;5097130;27;3618;-61
2022/04/28 01:10:54;;;;;;;;;;;;;;;20.40;41.26;102175.97;5103300;28;2767;-61
2022/04/28 01:13:21;;;;;;;;;;;;;;;20.41;41.28;102177.50;5103609;27;2965;-61
2022/04/28 01:16:01;;;;;;;;;;;;;;;20.40;41.24;102172.34;5103214;28;2998;-61
2022/04/28 01:18:27;;;;;;;;;;;;;;;20.39;41.30;102180.25;5097332;28;2967;-61
2022/04/28 01:20:54;;;;;;;;;;;;;;;20.39;41.27;102186.00;5119325;28;2951;-61
2022/04/28 01:23:20;;;;;;;;;;;;;;;20.40;41.23;102189.63;5120184;28;3207;-61
2022/04/28 01:25:47;;;;;;;;;;;;;;;20.39;41.23;102182.38;5120434;28;3057;-61
2022/04/28 01:28:14;;;;;;;;;;;;;;;20.38;41.21;102183.72;5117308;28;2998;-61
2022/04/28 01:30:40;;;;;;;;;;;;;;;20.38;41.28;102184.47;5119212;28;2852;-61
2022/04/28 01:33:08;;;;;;;;;;;;;;;20.37;41.33;102188.72;5102343;28;2895;-61
2022/04/28 01:35:37;;;;;;;;;;;;;;;20.36;41.25;102187.22;5104170;28;2697;-61
2022/04/28 01:38:03;;;;;;;;;;;;;;;20.37;41.32;102188.72;5101906;28;2842;-61
2022/04/28 01:40:30;;;;;;;;;;;;;;;20.36;41.28;102192.22;5098205;28;2757;-61
2022/04/28 01:42:59;;;;;;;;;;;;;;;20.37;41.38;102194.50;5095657;28;2911;-61
2022/04/28 01:45:26;;;;;;;;;;;;;;;20.38;41.25;102187.34;5100208;28;2853;-61
2022/04/28 01:48:08;;;;;;;;;;;;;;;20.39;41.08;102188.13;5105215;28;2899;-62
2022/04/28 01:56:32;;;;;;;;;;;;;;;20.40;41.13;102189.63;5118951;28;3026;-61
2022/04/28 01:59:19;;;;;;;;;;;;;;;20.37;41.35;102188.72;5113182;28;2912;-62
2022/04/28 02:01:59;;;;;;;;;;;;;;;20.38;41.30;102201.75;5100554;28;3027;-61
2022/04/28 02:04:26;;;;;;;;;;;;;;;20.40;41.28;102198.25;5092352;28;3253;-61
2022/04/28 02:06:53;;;;;;;;;;;;;;;20.40;41.25;102193.25;5089888;28;2743;-61
2022/04/28 02:09:20;;;;;;;;;;;;;;;20.40;41.13;102199.00;5119206;28;3024;-61
2022/04/28 02:11:48;;;;;;;;;;;;;;;20.40;41.16;102206.88;5097839;28;2950;-62
2022/04/28 02:14:36;;;;;;;;;;;;;;;20.40;41.21;102204.00;5095616;28;2761;-61
2022/04/28 02:17:33;;;;;;;;;;;;;;;20.39;41.30;102202.50;5099320;28;3055;-61
2022/04/28 02:20:01;;;;;;;;;;;;;;;20.40;41.38;102198.25;5100553;28;2813;-62
2022/04/28 02:22:28;;;;;;;;;;;;;;;20.40;41.39;102199.00;5108196;28;3108;-61
2022/04/28 02:24:54;;;;;;;;;;;;;;;20.39;41.38;102191.75;5096129;28;3146;-61
2022/04/28 02:27:21;;;;;;;;;;;;;;;20.39;41.39;102186.00;5096491;27;3292;-61
2022/04/28 02:29:47;;;;;;;;;;;;;;;20.38;41.37;102183.72;5123292;27;2935;-61
2022/04/28 02:32:14;;;;;;;;;;;;;;;20.38;41.38;102189.47;5097224;27;3285;-61
2022/04/28 02:34:41;;;;;;;;;;;;;;;20.37;41.39;102197.38;5119917;27;3444;-62
2022/04/28 02:37:07;;;;;;;;;;;;;;;20.36;41.33;102192.97;5113987;27;2959;-62
2022/04/28 02:39:34;;;;;;;;;;;;;;;20.36;41.35;102186.47;5125337;27;2600;-61
2022/04/28 02:42:00;;;;;;;;;;;;;;;20.35;41.37;102196.47;5123102;27;3104;-62
2022/04/28 02:44:27;;;;;;;;;;;;;;;20.35;41.33;102185.72;5093376;27;3156;-61
2022/04/28 02:46:53;;;;;;;;;;;;;;;20.37;41.30;102194.50;5100732;27;3119;-61
2022/04/28 02:49:24;;;;;;;;;;;;;;;20.38;41.21;102177.97;5107655;27;2882;-62
2022/04/28 02:51:53;;;;;;;;;;;;;;;20.38;41.34;102178.72;5093742;27;3250;-61
2022/04/28 02:54:19;;;;;;;;;;;;;;;20.39;41.39;102183.13;5107549;27;2919;-61
2022/04/28 02:56:48;;;;;;;;;;;;;;;20.39;41.53;102185.25;5092594;27;2930;-61
2022/04/28 02:59:14;;;;;;;;;;;;;;;20.40;41.39;102187.50;5115308;27;2948;-61
2022/04/28 03:01:40;;;;;;;;;;;;;;;20.41;41.50;102188.22;5116710;27;3008;-62
2022/04/28 03:04:07;;;;;;;;;;;;;;;20.42;41.49;102190.50;5093967;27;3315;-61
2022/04/28 03:12:06;;;;;;;;;;;;;;;20.42;41.64;102193.38;5126194;27;2642;-62
2022/04/28 03:14:33;;;;;;;;;;;;;;;20.42;41.62;102192.63;5101915;27;2907;-62
2022/04/28 03:17:00;;;;;;;;;;;;;;;20.43;41.72;102203.53;5111936;27;2858;-61
2022/04/28 03:19:29;;;;;;;;;;;;;;;20.44;41.61;102198.53;5125635;27;2623;-61
2022/04/28 03:21:56;;;;;;;;;;;;;;;20.44;41.63;102193.53;5124021;27;2660;-61
2022/04/28 03:24:22;;;;;;;;;;;;;;;20.45;41.80;102205.78;5108322;27;2778;-61
2022/04/28 03:26:49;;;;;;;;;;;;;;;20.45;41.88;102206.53;5126610;27;2927;-61
2022/04/28 03:29:19;;;;;;;;;;;;;;;20.45;41.77;102200.78;5105212;27;2952;-61
2022/04/28 03:31:45;;;;;;;;;;;;;;;20.47;41.79;102203.78;5125964;27;2310;-62
2022/04/28 03:34:20;;;;;;;;;;;;;;;20.47;41.66;102203.78;5108638;27;2648;-61
2022/04/28 03:36:52;;;;;;;;;;;;;;;20.49;41.73;102206.06;5103810;27;2397;-61
2022/04/28 03:39:29;;;;;;;;;;;;;;;20.49;41.79;102200.31;5098221;27;2901;-61
2022/04/28 03:41:55;;;;;;;;;;;;;;;20.49;41.80;102212.56;5110043;27;2861;-61
2022/04/28 03:44:22;;;;;;;;;;;;;;;20.49;41.78;102203.94;5112904;27;3281;-61
2022/04/28 03:46:48;;;;;;;;;;;;;;;20.50;41.96;102207.56;5121901;27;2945;-61
2022/04/28 03:49:15;;;;;;;;;;;;;;;20.50;41.90;102213.31;5114215;27;3110;-62
2022/04/28 03:51:41;;;;;;;;;;;;;;;20.50;41.93;102208.34;5098106;27;3005;-61
2022/04/28 03:54:09;;;;;;;;;;;;;;;20.50;41.88;102214.09;5093196;27;3171;-61
2022/04/28 03:56:36;;;;;;;;;;;;;;;20.52;41.71;102210.56;5122432;27;3090;-62
2022/04/28 03:59:09;;;;;;;;;;;;;;;20.51;41.89;102218.47;5098617;27;3031;-62
2022/04/28 04:02:13;;;;;;;;;;;;;;;20.52;41.99;102224.97;5079012;28;3064;-61
2022/04/28 04:04:40;;;;;;;;;;;;;;;20.53;42.06;102220.72;5071893;28;3161;-61
2022/04/28 04:07:07;;;;;;;;;;;;;;;20.53;42.13;102219.97;5079654;27;2715;-61
2022/04/28 04:09:34;;;;;;;;;;;;;;;20.54;41.93;102224.34;5118637;27;3106;-61
2022/04/28 04:12:00;;;;;;;;;;;;;;;20.55;41.72;102231.59;5099347;27;2878;-60
2022/04/28 04:14:46;;;;;;;;;;;;;;;20.55;41.83;102243.13;5089696;27;3296;-61
2022/04/28 04:17:14;;;;;;;;;;;;;;;20.54;41.94;102227.22;5103051;27;3560;-61
2022/04/28 04:19:41;;;;;;;;;;;;;;;20.53;41.84;102228.63;5109562;27;2946;-61
2022/04/28 04:22:08;;;;;;;;;;;;;;;20.54;41.83;102233.72;5110049;27;3026;-61
2022/04/28 04:24:35;;;;;;;;;;;;;;;20.56;41.87;102241.75;5116270;27;2869;-61
2022/04/28 04:27:02;;;;;;;;;;;;;;;20.57;41.91;102240.41;5099348;27;3196;-61
2022/04/28 04:29:54;;;;;;;;;;;;;;;20.57;42.13;102246.16;5113618;27;3046;-62
2022/04/28 04:32:44;;;;;;;;;;;;;;;20.56;42.09;102251.16;5093665;27;2952;-61
2022/04/28 04:35:24;;;;;;;;;;;;;;;20.56;42.20;102250.41;5118636;27;2815;-62
2022/04/28 04:37:51;;;;;;;;;;;;;;;20.56;42.00;102247.50;5097398;27;2987;-61
2022/04/28 04:40:17;;;;;;;;;;;;;;;20.56;41.98;102247.50;5099369;27;3022;-61
2022/04/28 04:42:46;;;;;;;;;;;;;;;20.57;41.85;102249.03;5117366;27;2909;-61
2022/04/28 04:45:12;;;;;;;;;;;;;;;20.57;41.98;102251.91;5102539;27;2680;-62
2022/04/28 04:47:58;;;;;;;;;;;;;;;20.57;42.00;102255.56;5118804;27;2713;-61
2022/04/28 04:50:42;;;;;;;;;;;;;;;20.59;41.99;102272.22;5096208;27;3017;-62
2022/04/28 04:53:21;;;;;;;;;;;;;;;20.59;41.93;102266.44;5105384;27;2453;-61
2022/04/28 04:55:48;;;;;;;;;;;;;;;20.60;41.94;102257.22;5111029;27;2758;-62
2022/04/28 04:58:21;;;;;;;;;;;;;;;20.59;41.91;102267.22;5101899;27;3020;-61
2022/04/28 05:00:48;;;;;;;;;;;;;;;20.61;41.90;102275.22;5103057;27;2631;-62
2022/04/28 05:03:24;;;;;;;;;;;;;;;20.60;42.07;102268.72;5119393;27;2932;-61
2022/04/28 05:06:02;;;;;;;;;;;;;;;20.61;41.97;102278.09;5112848;27;2972;-62
2022/04/28 05:08:37;;;;;;;;;;;;;;;20.62;41.79;102282.50;5101482;27;3002;-62
2022/04/28 05:11:06;;;;;;;;;;;;;;;20.61;41.85;102280.97;5117905;27;2718;-63
2022/04/28 05:13:33;;;;;;;;;;;;;;;20.63;41.88;102284.75;5108330;27;2695;-62
2022/04/28 05:16:03;;;;;;;;;;;;;;;20.61;42.14;102280.97;5102498;28;2678;-62
2022/04/28 05:18:38;;;;;;;;;;;;;;;20.59;42.02;102277.97;5108467;28;2797;-63
2022/04/28 05:21:33;;;;;;;;;;;;;;;20.59;42.15;102283.72;5098379;28;2802;-63
2022/04/28 05:24:18;;;;;;;;;;;;;;;20.61;42.31;102292.50;5120587;28;2718;-63
2022/04/28 05:27:19;;;;;;;;;;;;;;;20.60;42.31;102288.88;5123144;28;2654;-63
2022/04/28 05:29:48;;;;;;;;;;;;;;;20.60;42.34;102285.25;5121307;28;2681;-62
2022/04/28 05:32:27;;;;;;;;;;;;;;;20.60;42.46;102297.50;5113777;28;3475;-66
2022/04/28 05:35:05;;;;;;;;;;;;;;;20.64;42.73;102299.91;5091859;28;3347;-62
2022/04/28 05:37:32;;;;;;;;;;;;;;;20.64;42.87;102299.91;5090406;28;2987;-63
2022/04/28 05:39:58;;;;;;;;;;;;;;;20.65;42.88;102307.91;5113501;28;2963;-63
2022/04/28 05:45:41;;;;;;;;;;;;;;;20.69;42.88;102304.56;5111704;28;3148;-66
2022/04/28 05:47:56;;;;;;;;;;;;;;;20.78;42.82;102312.38;5112993;28;2861;-65
2022/04/28 05:50:23;;;;;;;;;;;;;;;20.81;42.93;102316.16;5097104;28;3212;-63
2022/04/28 05:52:49;;;;;;;;;;;;;;;20.76;42.85;102312.25;5103661;27;3157;-64
2022/04/28 05:55:16;;;;;;;;;;;;;;;20.79;42.93;102311.00;5089608;28;3084;-63
2022/04/28 05:57:43;;;;;;;;;;;;;;;20.83;42.80;102319.91;5100092;28;2543;-63
2022/04/28 06:00:10;;;;;;;;;;;;;;;20.86;42.72;102326.56;5124113;28;2763;-63
2022/04/28 06:02:42;;;;;;;;;;;;;;;20.88;42.76;102327.47;5121838;27;2943;-63
2022/04/28 06:05:19;;;;;;;;;;;;;;;20.88;42.55;102318.06;5122770;27;2817;-63
2022/04/28 06:07:46;;;;;;;;;;;;;;;20.90;42.60;102321.84;5101812;27;2699;-63
2022/04/28 06:10:13;;;;;;;;;;;;;;;20.91;42.61;102329.13;5099342;27;2821;-63
2022/04/28 06:12:41;;;;;;;;;;;;;;;20.91;42.50;102323.34;5104930;27;2643;-63
2022/04/28 06:15:09;;;;;;;;;;;;;;;20.92;42.64;102333.50;5124097;27;2660;-62
2022/04/28 06:17:42;;;;;;;;;;;;;;;20.92;42.67;102332.75;5096220;27;2848;-63
2022/04/28 06:20:09;;;;;;;;;;;;;;;21.00;42.79;102326.78;5098817;27;2890;-59
2022/04/28 06:22:58;;;;;;;;;;;;;;;21.02;42.91;102326.91;5115587;27;2672;-56
2022/04/28 06:25:28;;;;;;;;;;;;;;;21.03;42.50;102331.31;5106783;27;2594;-52
2022/04/28 06:27:56;;;;;;;;;;;;;;;21.01;42.39;102334.81;5102870;27;2625;-53
2022/04/28 06:30:22;;;;;;;;;;;;;;;20.93;42.47;102340.00;5118563;27;2669;-57
2022/04/28 06:32:53;;;;;;;;;;;;;;;20.89;42.49;102340.50;5107687;27;2656;-57
2022/04/28 06:35:51;;;;;;;;;;;;;;;20.99;42.19;102333.91;5095309;27;2651;-58
2022/04/28 06:38:22;;;;;;;;;;;;;;;20.96;41.98;102332.25;5101565;27;2617;-58
2022/04/28 06:40:49;;;;;;;;;;;;;;;20.96;41.75;102344.53;5125006;27;2459;-57
2022/04/28 06:43:16;;;;;;;;;;;;;;;20.99;41.55;102339.69;5109175;27;2586;-55
2022/04/28 06:46:14;;;;;;;;;;;;;;;20.94;41.46;102347.28;5128991;27;1598;-55
2022/04/28 06:48:59;;;;;;;;;;;;;;;20.87;41.65;102340.34;5123213;27;2588;-54
2022/04/28 06:51:44;;;;;;;;;;;;;;;20.84;41.53;102344.44;5122437;27;2758;-58
2022/04/28 06:54:19;;;;;;;;;;;;;;;20.90;41.35;102344.88;5119672;27;2739;-58
2022/04/28 06:56:47;;;;;;;;;;;;;;;20.90;41.09;102349.88;5121194;27;3370;-58
2022/04/28 06:59:14;;;;;;;;;;;;;;;20.96;40.90;102350.31;5108110;27;2813;-57
2022/04/28 07:01:43;;;;;;;;;;;;;;;20.95;41.14;102348.03;5109444;27;2773;-61
2022/04/28 07:04:11;;;;;;;;;;;;;;;20.90;41.02;102347.00;5119774;27;2828;-61
2022/04/28 07:06:38;;;;;;;;;;;;;;;20.97;41.06;102356.81;5100634;27;3357;-59
2022/04/28 07:09:06;;;;;;;;;;;;;;;20.93;40.77;102352.28;5115229;27;2988;-61
2022/04/28 07:11:32;;;;;;;;;;;;;;;20.90;40.82;102350.63;5125571;27;2737;-61
2022/04/28 07:14:17;;;;;;;;;;;;;;;20.91;40.82;102349.28;5102382;27;2905;-61
2022/04/28 07:17:02;;;;;;;;;;;;;;;20.91;41.23;102352.16;5125063;27;2784;-61
2022/04/28 07:19:36;;;;;;;;;;;;;;;20.96;41.42;102349.53;5119731;27;2789;-61
2022/04/28 07:22:05;;;;;;;;;;;;;;;20.91;41.19;102349.28;5093505;27;2920;-61
2022/04/28 07:24:32;;;;;;;;;;;;;;;20.91;41.32;102351.38;5098616;27;2724;-61
2022/04/28 07:26:59;;;;;;;;;;;;;;;20.90;40.94;102353.50;5106353;27;2975;-61
2022/04/28 07:29:26;;;;;;;;;;;;;;;20.91;41.09;102357.91;5100433;27;2738;-62
2022/04/28 07:32:18;;;;;;;;;;;;;;;20.88;40.76;102362.00;5086804;28;2838;-61
2022/04/28 07:35:05;;;;;;;;;;;;;;;20.89;40.72;102357.78;5096190;28;2757;-61
2022/04/28 07:37:50;;;;;;;;;;;;;;;20.85;40.61;102362.50;5100304;28;2775;-63
2022/04/28 07:40:42;;;;;;;;;;;;;;;20.79;40.99;102356.31;5118854;27;2816;-61
2022/04/28 07:43:14;;;;;;;;;;;;;;;20.85;41.19;102369.00;5104297;28;2751;-62
2022/04/28 07:45:41;;;;;;;;;;;;;;;20.73;40.48;102361.66;5101974;28;2801;-65
2022/04/28 07:48:16;;;;;;;;;;;;;;;20.44;39.50;102365.41;5111914;27;2947;-61
2022/04/28 07:50:42;;;;;;;;;;;;;;;20.45;39.71;102364.78;5097987;28;2755;-63
2022/04/28 07:53:18;;;;;;;;;;;;;;;20.53;39.84;102369.63;5098434;28;2984;-63
2022/04/28 07:56:10;;;;;;;;;;;;;;;20.59;39.97;102358.56;5099047;28;3214;-64
2022/04/28 07:58:32;;;;;;;;;;;;;;;20.64;40.35;102360.34;5100933;28;2619;-64
2022/04/28 08:01:17;;;;;;;;;;;;;;;20.68;40.55;102360.63;5099014;28;2581;-63
2022/04/28 08:03:43;;;;;;;;;;;;;;;20.67;40.51;102354.09;5095200;28;2607;-63
2022/04/28 08:06:13;;;;;;;;;;;;;;;20.71;40.50;102370.91;5097749;28;2564;-63
2022/04/28 08:08:40;;;;;;;;;;;;;;;20.66;40.57;102358.38;5114126;27;2821;-63
2022/04/28 08:11:07;;;;;;;;;;;;;;;20.69;40.30;102367.91;5104331;28;2592;-65
2022/04/28 08:13:34;;;;;;;;;;;;;;;20.66;40.42;102363.34;5096601;28;2665;-66
2022/04/28 08:16:23;;;;;;;;;;;;;;;20.47;38.77;102364.19;5094132;28;2812;-65
2022/04/28 08:18:50;;;;;;;;;;;;;;;20.49;38.91;102362.19;5098679;28;3138;-64
2022/04/28 08:21:22;;;;;;;;;;;;;;;20.53;39.00;102366.75;5095060;28;2789;-63
2022/04/28 08:23:48;;;;;;;;;;;;;;;20.61;40.12;102365.19;5099116;28;3201;-63
2022/04/28 08:26:16;;;;;;;;;;;;;;;20.66;40.04;102364.13;5102274;28;2810;-62
2022/04/28 08:28:44;;;;;;;;;;;;;;;20.64;40.41;102360.34;5093234;28;2798;-62
2022/04/28 08:31:11;;;;;;;;;;;;;;;20.61;40.25;102361.56;5101213;28;2645;-62
2022/04/28 08:33:43;;;;;;;;;;;;;;;20.63;40.44;102359.59;5094465;28;2672;-62
2022/04/28 08:36:12;;;;;;;;;;;;;;;20.67;40.51;102365.63;5123182;27;2762;-62
2022/04/28 08:38:40;;;;;;;;;;;;;;;20.71;40.66;102365.16;5098131;28;2957;-62
2022/04/28 08:41:08;;;;;;;;;;;;;;;20.71;40.73;102363.03;5104453;28;2576;-62
2022/04/28 08:43:53;;;;;;;;;;;;;;;20.71;41.01;102360.16;5096831;28;3063;-60
2022/04/28 08:49:05;;;;;;;;;;;;;;;20.65;41.02;102361.84;5115638;27;2823;-71
2022/04/28 08:51:35;;;;;;;;;;;;;;;20.58;40.90;102357.06;5078893;28;2847;-66
2022/04/28 08:54:02;;;;;;;;;;;;;;;20.63;41.17;102359.59;5101170;28;2740;-64
2022/04/28 08:56:30;;;;;;;;;;;;;;;20.70;41.32;102357.88;5115385;27;2943;-63
2022/04/28 08:59:01;;;;;;;;;;;;;;;20.66;41.57;102369.09;5096514;28;3172;-64
2022/04/28 09:01:28;;;;;;;;;;;;;;;20.61;41.78;102355.81;5100042;27;2835;-66
2022/04/28 09:04:14;;;;;;;;;;;;;;;20.63;41.88;102364.59;5093247;28;2973;-63
2022/04/28 09:06:59;;;;;;;;;;;;;;;20.61;41.88;102361.56;5100838;28;2856;-63
2022/04/28 09:09:35;;;;;;;;;;;;;;;20.49;41.22;102356.44;5087704;28;2643;-63
2022/04/28 09:12:21;;;;;;;;;;;;;;;20.51;41.50;102365.22;5103062;28;2703;-63
2022/04/28 09:14:55;;;;;;;;;;;;;;;20.56;42.04;102354.00;5106832;28;1691;-63
2022/04/28 09:17:38;;;;;;;;;;;;;;;20.60;41.99;102378.09;5117108;27;2677;-63
2022/04/28 09:20:05;;;;;;;;;;;;;;;20.62;41.83;102368.84;5096244;28;2654;-63
2022/04/28 09:22:40;;;;;;;;;;;;;;;20.61;41.81;102367.31;5098379;28;2673;-63
2022/04/28 09:25:08;;;;;;;;;;;;;;;20.61;41.95;102373.09;5099204;28;2577;-63
2022/04/28 09:27:34;;;;;;;;;;;;;;;20.64;41.95;102372.63;5105239;28;1833;-63
2022/04/28 09:30:02;;;;;;;;;;;;;;;20.64;42.11;102378.38;5102466;28;2526;-63
2022/04/28 09:32:31;;;;;;;;;;;;;;;20.62;42.26;102368.84;5099927;28;2680;-63
2022/04/28 09:35:29;;;;;;;;;;;;;;;20.64;42.35;102360.34;5095363;28;1708;-63
2022/04/28 09:38:18;;;;;;;;;;;;;;;20.65;42.46;102367.63;5090259;28;2622;-63
2022/04/28 09:43:48;;;;;;;;;;;;;;;20.66;42.61;102369.88;5079104;28;2692;-63
2022/04/28 09:46:19;;;;;;;;;;;;;;;20.66;42.64;102363.34;5109800;27;2619;-63
2022/04/28 09:48:47;;;;;;;;;;;;;;;20.65;42.73;102368.38;5096168;28;2610;-63
2022/04/28 09:51:25;;;;;;;;;;;;;;;20.67;42.77;102365.63;5097003;27;2618;-63
2022/04/28 09:54:17;;;;;;;;;;;;;;;20.67;42.85;102370.63;5095123;28;2784;-62
2022/04/28 09:56:58;;;;;;;;;;;;;;;20.67;42.88;102356.25;5091913;28;2731;-62
2022/04/28 09:59:27;;;;;;;;;;;;;;;20.70;42.92;102360.75;5095137;28;2695;-62
2022/04/28 10:01:53;;;;;;;;;;;;;;;20.70;42.97;102363.63;5094615;28;2664;-63
2022/04/28 10:04:20;;;;;;;;;;;;;;;20.67;42.99;102367.75;5085095;28;2766;-63
2022/04/28 10:07:01;;;;;;;;;;;;;;;20.70;42.99;102363.63;5092175;28;2677;-62
2022/04/28 10:09:36;;;;;;;;;;;;;;;20.71;43.12;102370.91;5112097;27;2612;-62
2022/04/28 10:12:08;;;;;;;;;;;;;;;20.70;43.08;102364.38;5092737;28;2933;-62
2022/04/28 10:14:53;;;;;;;;;;;;;;;20.73;43.08;102355.88;5095888;28;2540;-62
2022/04/28 10:17:22;;;;;;;;;;;;;;;20.71;43.20;102365.16;5085521;28;2678;-63
2022/04/28 10:19:56;;;;;;;;;;;;;;;20.71;43.20;102356.53;5095130;28;2910;-63
2022/04/28 10:22:41;;;;;;;;;;;;;;;20.73;43.34;102362.44;5093906;28;2612;-63
2022/04/28 10:34:27;;;;;;;;;;;;;;;20.74;43.45;102374.69;5049974;28;2667;-63
2022/04/28 10:36:54;;;;;;;;;;;;;;;20.71;43.46;102370.91;5061384;28;2751;-63
2022/04/28 10:39:33;;;;;;;;;;;;;;;20.72;43.59;102366.66;5076392;28;2782;-63
2022/04/28 10:42:00;;;;;;;;;;;;;;;20.72;43.47;102372.41;5106058;28;2886;-63
2022/04/28 10:44:29;;;;;;;;;;;;;;;20.71;43.49;102371.66;5102984;28;2362;-63
2022/04/28 10:46:57;;;;;;;;;;;;;;;20.71;43.49;102374.56;5101951;28;2612;-63
2022/04/28 10:49:24;;;;;;;;;;;;;;;20.70;43.44;102373.03;5105904;28;1712;-64
2022/04/28 10:51:55;;;;;;;;;;;;;;;20.73;43.44;102378.91;5103083;28;2731;-63
2022/04/28 10:54:23;;;;;;;;;;;;;;;20.73;43.41;102379.69;5103958;28;2590;-63
2022/04/28 10:56:54;;;;;;;;;;;;;;;20.73;43.56;102373.94;5107030;28;2624;-63
2022/04/28 10:59:28;;;;;;;;;;;;;;;20.74;43.43;102363.91;5104147;28;2633;-63
2022/04/28 11:01:55;;;;;;;;;;;;;;;20.76;43.44;102366.94;5098308;28;2649;-63
2022/04/28 11:04:22;;;;;;;;;;;;;;;20.77;43.40;102361.94;5106520;28;1791;-63
2022/04/28 11:06:54;;;;;;;;;;;;;;;20.77;43.49;102361.94;5103603;28;2316;-63
2022/04/28 11:09:33;;;;;;;;;;;;;;;20.75;43.57;102359.66;5107174;28;1747;-63
2022/04/28 11:12:13;;;;;;;;;;;;;;;20.77;43.49;102354.03;5106730;28;1824;-63
2022/04/28 11:15:02;;;;;;;;;;;;;;;20.77;43.46;102361.94;5105883;28;1573;-63
2022/04/28 11:17:30;;;;;;;;;;;;;;;20.77;43.56;102356.19;5102311;28;2659;-63
2022/04/28 11:19:58;;;;;;;;;;;;;;;20.77;43.55;102362.69;5106171;28;1901;-63
2022/04/28 11:22:26;;;;;;;;;;;;;;;20.79;43.51;102371.47;5105466;28;1853;-63
2022/04/28 11:24:52;;;;;;;;;;;;;;;20.78;43.60;102354.81;5102312;28;2688;-63
2022/04/28 11:27:34;;;;;;;;;;;;;;;20.79;43.50;102357.06;5101659;28;2864;-63
2022/04/28 11:30:05;;;;;;;;;;;;;;;20.80;43.53;102357.81;5102519;28;2556;-63
2022/04/28 11:32:32;;;;;;;;;;;;;;;20.79;43.40;102348.44;5084423;27;967157;-63
2022/04/28 11:34:59;;;;;;;;;;;;;;;20.80;43.55;102352.06;5128192;27;1713;-63
2022/04/28 11:37:25;;;;;;;;;;;;;;;20.79;43.47;102348.44;5121964;27;2653;-63
2022/04/28 11:39:52;;;;;;;;;;;;;;;20.80;43.49;102344.19;5123147;27;2655;-63
2022/04/28 11:42:41;;;;;;;;;;;;;;;20.80;43.63;102349.94;5124113;27;2647;-63
2022/04/28 11:45:07;;;;;;;;;;;;;;;20.80;43.67;102346.28;5125249;27;2622;-63
2022/04/28 11:47:37;;;;;;;;;;;;;;;20.79;43.57;102348.44;5123261;27;2660;-63
2022/04/28 11:50:03;;;;;;;;;;;;;;;20.79;43.63;102342.66;5127320;27;1763;-63
2022/04/28 11:52:31;;;;;;;;;;;;;;;20.80;43.61;102332.69;5124764;27;2612;-63
2022/04/28 11:54:58;;;;;;;;;;;;;;;20.82;43.65;102340.69;5124650;27;2674;-63
2022/04/28 11:57:25;;;;;;;;;;;;;;;20.82;43.71;102338.59;5128394;27;1788;-63
2022/04/28 11:59:51;;;;;;;;;;;;;;;20.82;43.62;102335.69;5124190;27;2675;-63
2022/04/28 12:02:24;;;;;;;;;;;;;;;20.83;43.71;102345.09;5115026;27;2954;-63
2022/04/28 12:04:51;;;;;;;;;;;;;;;20.81;43.60;102339.94;5102715;27;3483;-66
2022/04/28 12:07:18;;;;;;;;;;;;;;;20.82;43.77;102332.81;5103678;27;3284;-67
2022/04/28 12:15:26;;;;;;;;;;;;;;;20.81;43.72;102339.19;5056850;27;2703;-64
2022/04/28 12:20:39;;;;;;;;;;;;;;;20.80;43.67;102338.44;5118785;27;2889;-62
2022/04/28 12:23:05;;;;;;;;;;;;;;;20.79;43.63;102334.03;5120744;27;3057;-63
2022/04/28 12:25:37;;;;;;;;;;;;;;;20.80;43.46;102338.44;5125946;27;2677;-63
2022/04/28 12:28:05;;;;;;;;;;;;;;;20.81;43.55;102333.44;5121485;27;2721;-63
2022/04/28 12:30:35;;;;;;;;;;;;;;;20.81;43.52;102328.41;5120352;27;2826;-63
2022/04/28 12:33:03;;;;;;;;;;;;;;;20.82;43.49;102329.94;5100206;28;3028;-63
2022/04/28 12:35:30;;;;;;;;;;;;;;;20.83;43.55;102331.44;5103614;28;2511;-62
2022/04/28 12:38:06;;;;;;;;;;;;;;;20.83;43.44;102330.69;5097167;28;2640;-62
2022/04/28 12:40:40;;;;;;;;;;;;;;;20.83;43.46;102325.69;5100816;28;3297;-63
2022/04/28 12:43:06;;;;;;;;;;;;;;;20.84;43.54;102330.06;5085737;28;3262;-63
2022/04/28 12:45:34;;;;;;;;;;;;;;;20.77;43.49;102333.91;5088139;28;2605;-64
2022/04/28 12:48:00;;;;;;;;;;;;;;;20.77;43.32;102328.13;5093084;28;2868;-64
2022/04/28 12:50:26;;;;;;;;;;;;;;;20.82;43.08;102323.41;5098298;28;3430;-67
2022/04/28 12:52:53;;;;;;;;;;;;;;;20.80;43.07;102318.28;5091332;28;2886;-60
2022/04/28 12:55:20;;;;;;;;;;;;;;;20.80;42.82;102321.16;5098756;28;2907;-61
2022/04/28 12:57:46;;;;;;;;;;;;;;;20.79;39.80;102322.53;5102013;28;2719;-61
2022/04/28 13:00:14;;;;;;;;;;;;;;;20.76;42.16;102320.88;5093464;28;3151;-62
2022/04/28 13:02:47;;;;;;;;;;;;;;;20.75;40.81;102325.13;5098572;28;2628;-65
2022/04/28 13:05:15;;;;;;;;;;;;;;;20.70;39.27;102318.31;5093006;28;3357;-63
2022/04/28 13:08:01;;;;;;;;;;;;;;;20.65;38.84;102310.03;5097744;28;3013;-63
2022/04/28 13:10:28;;;;;;;;;;;;;;;20.63;38.28;102307.03;5093140;28;3180;-61
2022/04/28 13:12:54;;;;;;;;;;;;;;;20.65;37.60;102304.28;5087137;28;3263;-63
2022/04/28 13:15:21;;;;;;;;;;;;;;;20.66;38.17;102315.19;5093796;28;2838;-64
2022/04/28 13:17:47;;;;;;;;;;;;;;;20.64;38.84;102299.91;5090689;28;2905;-66
2022/04/28 13:20:13;;;;;;;;;;;;;;;20.69;39.76;102298.81;5093207;28;3402;-67
2022/04/28 13:22:40;;;;;;;;;;;;;;;20.70;39.77;102308.94;5092290;28;2975;-71
2022/04/28 13:25:06;;;;;;;;;;;;;;;20.70;39.84;102306.06;5095028;28;3412;-65
2022/04/28 13:27:33;;;;;;;;;;;;;;;20.73;40.37;102295.44;5094181;28;2912;-65
2022/04/28 13:29:59;;;;;;;;;;;;;;;20.75;40.62;102296.31;5093240;28;3137;-65
2022/04/28 13:32:25;;;;;;;;;;;;;;;20.76;40.68;102291.34;5105047;28;3014;-65
2022/04/28 13:34:52;;;;;;;;;;;;;;;20.75;41.01;102284.81;5117159;28;2860;-62
2022/04/28 13:37:18;;;;;;;;;;;;;;;20.76;41.08;102292.09;5112199;28;2895;-62
2022/04/28 13:39:45;;;;;;;;;;;;;;;20.73;40.70;102278.16;5118706;28;2791;-64
2022/04/28 13:42:11;;;;;;;;;;;;;;;20.76;40.81;102277.69;5111023;28;2819;-66
2022/04/28 13:44:38;;;;;;;;;;;;;;;20.78;40.42;102277.84;5116802;28;2890;-66
2022/04/28 13:47:04;;;;;;;;;;;;;;;20.77;40.32;102270.56;5114713;28;2806;-67
2022/04/28 13:49:31;;;;;;;;;;;;;;;20.82;40.59;102278.13;5107479;28;2827;-67